sensor_id;sensor_type;location;lat;lon;timestamp;P1;durP1;ratioP1;P2;durP2;ratioP2
59189;SDS011;50749;51.636;4.948;2023-07-31T00:00:27;6.95;;;2.45;;
59189;SDS011;50749;51.636;4.948;2023-07-31T00:03:13;8.73;;;2.97;;
59189;SDS011;50749;51.636;4.948;2023-07-31T00:05:39;7.38;;;3.03;;
59189;SDS011;50749;51.636;4.948;2023-07-31T00:08:04;8.13;;;2.78;;
59189;SDS011;50749;51.636;4.948;2023-07-31T00:10:30;8.35;;;3.15;;
59189;SDS011;50749;51.636;4.948;2023-07-31T00:12:56;6.90;;;3.08;;
59189;SDS011;50749;51.636;4.948;2023-07-31T00:15:22;8.15;;;2.85;;
59189;SDS011;50749;51.636;4.948;2023-07-31T00:17:47;9.38;;;2.95;;
59189;SDS011;50749;51.636;4.948;2023-07-31T00:20:13;6.45;;;2.60;;
59189;SDS011;50749;51.636;4.948;2023-07-31T00:22:39;9.25;;;3.45;;
59189;SDS011;50749;51.636;4.948;2023-07-31T00:25:04;9.57;;;2.63;;
59189;SDS011;50749;51.636;4.948;2023-07-31T00:27:31;5.32;;;2.38;;
59189;SDS011;50749;51.636;4.948;2023-07-31T00:29:58;9.02;;;2.50;;
59189;SDS011;50749;51.636;4.948;2023-07-31T00:32:23;9.10;;;3.35;;
59189;SDS011;50749;51.636;4.948;2023-07-31T00:34:49;6.32;;;3.28;;
59189;SDS011;50749;51.636;4.948;2023-07-31T00:37:15;8.70;;;2.78;;
59189;SDS011;50749;51.636;4.948;2023-07-31T00:39:41;10.32;;;2.65;;
59189;SDS011;50749;51.636;4.948;2023-07-31T00:42:07;6.70;;;3.00;;
59189;SDS011;50749;51.636;4.948;2023-07-31T00:44:33;5.55;;;2.75;;
59189;SDS011;50749;51.636;4.948;2023-07-31T00:46:59;4.25;;;2.60;;
59189;SDS011;50749;51.636;4.948;2023-07-31T00:49:25;6.75;;;2.88;;
59189;SDS011;50749;51.636;4.948;2023-07-31T00:51:51;8.30;;;2.70;;
59189;SDS011;50749;51.636;4.948;2023-07-31T00:54:18;6.72;;;2.58;;
59189;SDS011;50749;51.636;4.948;2023-07-31T00:56:44;8.25;;;2.80;;
59189;SDS011;50749;51.636;4.948;2023-07-31T00:59:11;7.28;;;2.65;;
59189;SDS011;50749;51.636;4.948;2023-07-31T01:01:37;7.60;;;2.97;;
59189;SDS011;50749;51.636;4.948;2023-07-31T01:04:03;8.38;;;2.88;;
59189;SDS011;50749;51.636;4.948;2023-07-31T01:06:40;8.25;;;2.53;;
59189;SDS011;50749;51.636;4.948;2023-07-31T01:09:36;9.35;;;2.75;;
59189;SDS011;50749;51.636;4.948;2023-07-31T01:12:09;8.38;;;2.45;;
59189;SDS011;50749;51.636;4.948;2023-07-31T01:14:40;6.43;;;2.67;;
59189;SDS011;50749;51.636;4.948;2023-07-31T01:17:05;7.45;;;3.55;;
59189;SDS011;50749;51.636;4.948;2023-07-31T01:19:31;8.40;;;2.78;;
59189;SDS011;50749;51.636;4.948;2023-07-31T01:27:40;8.55;;;3.00;;
59189;SDS011;50749;51.636;4.948;2023-07-31T01:30:17;6.90;;;2.80;;
59189;SDS011;50749;51.636;4.948;2023-07-31T01:32:50;7.57;;;2.80;;
59189;SDS011;50749;51.636;4.948;2023-07-31T01:35:19;6.55;;;2.85;;
59189;SDS011;50749;51.636;4.948;2023-07-31T01:37:45;7.05;;;2.47;;
59189;SDS011;50749;51.636;4.948;2023-07-31T01:40:11;8.85;;;3.13;;
59189;SDS011;50749;51.636;4.948;2023-07-31T01:42:36;7.47;;;2.78;;
59189;SDS011;50749;51.636;4.948;2023-07-31T01:45:02;10.05;;;2.88;;
59189;SDS011;50749;51.636;4.948;2023-07-31T01:47:28;10.38;;;2.85;;
59189;SDS011;50749;51.636;4.948;2023-07-31T01:49:54;13.10;;;3.90;;
59189;SDS011;50749;51.636;4.948;2023-07-31T01:52:20;8.25;;;3.30;;
59189;SDS011;50749;51.636;4.948;2023-07-31T01:54:46;7.45;;;3.00;;
59189;SDS011;50749;51.636;4.948;2023-07-31T01:57:12;10.10;;;4.07;;
59189;SDS011;50749;51.636;4.948;2023-07-31T01:59:38;9.25;;;3.05;;
59189;SDS011;50749;51.636;4.948;2023-07-31T02:02:03;7.28;;;2.85;;
59189;SDS011;50749;51.636;4.948;2023-07-31T02:04:29;9.55;;;3.45;;
59189;SDS011;50749;51.636;4.948;2023-07-31T02:06:55;6.43;;;3.00;;
59189;SDS011;50749;51.636;4.948;2023-07-31T02:09:21;8.73;;;3.72;;
59189;SDS011;50749;51.636;4.948;2023-07-31T02:11:46;8.20;;;2.97;;
59189;SDS011;50749;51.636;4.948;2023-07-31T02:14:12;11.27;;;2.97;;
59189;SDS011;50749;51.636;4.948;2023-07-31T02:16:38;6.38;;;2.90;;
59189;SDS011;50749;51.636;4.948;2023-07-31T02:19:04;8.48;;;2.65;;
59189;SDS011;50749;51.636;4.948;2023-07-31T02:21:29;6.38;;;2.72;;
59189;SDS011;50749;51.636;4.948;2023-07-31T02:23:55;9.23;;;3.05;;
59189;SDS011;50749;51.636;4.948;2023-07-31T02:26:21;10.15;;;2.75;;
59189;SDS011;50749;51.636;4.948;2023-07-31T02:28:47;6.72;;;3.10;;
59189;SDS011;50749;51.636;4.948;2023-07-31T02:31:12;9.02;;;3.45;;
59189;SDS011;50749;51.636;4.948;2023-07-31T02:33:38;8.77;;;3.17;;
59189;SDS011;50749;51.636;4.948;2023-07-31T02:36:04;9.32;;;3.13;;
59189;SDS011;50749;51.636;4.948;2023-07-31T02:38:29;7.65;;;3.15;;
59189;SDS011;50749;51.636;4.948;2023-07-31T02:40:55;7.20;;;3.03;;
59189;SDS011;50749;51.636;4.948;2023-07-31T02:43:21;6.90;;;3.00;;
59189;SDS011;50749;51.636;4.948;2023-07-31T02:45:50;6.15;;;2.75;;
59189;SDS011;50749;51.636;4.948;2023-07-31T02:48:17;6.72;;;2.65;;
59189;SDS011;50749;51.636;4.948;2023-07-31T02:50:43;9.77;;;3.80;;
59189;SDS011;50749;51.636;4.948;2023-07-31T02:53:08;6.68;;;2.83;;
59189;SDS011;50749;51.636;4.948;2023-07-31T02:55:34;9.13;;;3.35;;
59189;SDS011;50749;51.636;4.948;2023-07-31T02:58:00;5.40;;;2.95;;
59189;SDS011;50749;51.636;4.948;2023-07-31T03:00:25;9.75;;;3.85;;
59189;SDS011;50749;51.636;4.948;2023-07-31T03:02:51;8.45;;;3.13;;
59189;SDS011;50749;51.636;4.948;2023-07-31T03:05:17;8.75;;;2.75;;
59189;SDS011;50749;51.636;4.948;2023-07-31T03:07:43;10.93;;;3.08;;
59189;SDS011;50749;51.636;4.948;2023-07-31T03:10:08;8.80;;;3.47;;
59189;SDS011;50749;51.636;4.948;2023-07-31T03:12:34;7.82;;;3.65;;
59189;SDS011;50749;51.636;4.948;2023-07-31T03:15:00;9.43;;;4.10;;
59189;SDS011;50749;51.636;4.948;2023-07-31T03:17:26;8.40;;;3.15;;
59189;SDS011;50749;51.636;4.948;2023-07-31T03:19:51;11.23;;;3.53;;
59189;SDS011;50749;51.636;4.948;2023-07-31T03:22:17;7.53;;;2.65;;
59189;SDS011;50749;51.636;4.948;2023-07-31T03:24:43;5.90;;;2.90;;
59189;SDS011;50749;51.636;4.948;2023-07-31T03:27:08;9.93;;;3.33;;
59189;SDS011;50749;51.636;4.948;2023-07-31T03:29:34;5.40;;;2.47;;
59189;SDS011;50749;51.636;4.948;2023-07-31T03:32:00;7.53;;;3.10;;
59189;SDS011;50749;51.636;4.948;2023-07-31T03:34:26;8.88;;;2.83;;
59189;SDS011;50749;51.636;4.948;2023-07-31T03:36:52;8.70;;;3.28;;
59189;SDS011;50749;51.636;4.948;2023-07-31T03:39:18;8.52;;;2.72;;
59189;SDS011;50749;51.636;4.948;2023-07-31T03:41:44;9.98;;;3.30;;
59189;SDS011;50749;51.636;4.948;2023-07-31T03:44:09;7.32;;;3.00;;
59189;SDS011;50749;51.636;4.948;2023-07-31T03:46:35;7.25;;;2.90;;
59189;SDS011;50749;51.636;4.948;2023-07-31T03:49:01;9.43;;;3.10;;
59189;SDS011;50749;51.636;4.948;2023-07-31T03:51:27;9.73;;;3.45;;
59189;SDS011;50749;51.636;4.948;2023-07-31T03:53:53;8.45;;;2.65;;
59189;SDS011;50749;51.636;4.948;2023-07-31T03:56:18;7.65;;;2.90;;
59189;SDS011;50749;51.636;4.948;2023-07-31T03:58:44;5.53;;;2.45;;
59189;SDS011;50749;51.636;4.948;2023-07-31T04:01:10;9.70;;;3.00;;
59189;SDS011;50749;51.636;4.948;2023-07-31T04:03:35;7.28;;;2.47;;
59189;SDS011;50749;51.636;4.948;2023-07-31T04:06:01;8.43;;;3.38;;
59189;SDS011;50749;51.636;4.948;2023-07-31T04:08:27;7.32;;;2.55;;
59189;SDS011;50749;51.636;4.948;2023-07-31T04:10:53;6.78;;;2.63;;
59189;SDS011;50749;51.636;4.948;2023-07-31T04:13:18;10.85;;;2.97;;
59189;SDS011;50749;51.636;4.948;2023-07-31T04:15:48;6.00;;;2.60;;
59189;SDS011;50749;51.636;4.948;2023-07-31T04:18:15;7.63;;;3.25;;
59189;SDS011;50749;51.636;4.948;2023-07-31T04:20:41;6.30;;;2.45;;
59189;SDS011;50749;51.636;4.948;2023-07-31T04:23:07;6.88;;;2.65;;
59189;SDS011;50749;51.636;4.948;2023-07-31T04:25:33;8.23;;;3.40;;
59189;SDS011;50749;51.636;4.948;2023-07-31T04:28:00;7.57;;;2.92;;
59189;SDS011;50749;51.636;4.948;2023-07-31T04:30:26;5.30;;;2.65;;
59189;SDS011;50749;51.636;4.948;2023-07-31T04:32:52;4.50;;;2.10;;
59189;SDS011;50749;51.636;4.948;2023-07-31T04:35:18;8.40;;;2.88;;
59189;SDS011;50749;51.636;4.948;2023-07-31T04:37:43;5.13;;;2.40;;
59189;SDS011;50749;51.636;4.948;2023-07-31T04:40:12;5.72;;;2.58;;
59189;SDS011;50749;51.636;4.948;2023-07-31T04:42:37;7.45;;;2.70;;
59189;SDS011;50749;51.636;4.948;2023-07-31T04:45:03;6.72;;;2.65;;
59189;SDS011;50749;51.636;4.948;2023-07-31T04:47:29;8.05;;;2.92;;
59189;SDS011;50749;51.636;4.948;2023-07-31T04:49:55;9.38;;;3.22;;
59189;SDS011;50749;51.636;4.948;2023-07-31T04:52:21;8.32;;;2.85;;
59189;SDS011;50749;51.636;4.948;2023-07-31T04:54:46;5.93;;;2.58;;
59189;SDS011;50749;51.636;4.948;2023-07-31T04:57:12;9.05;;;2.65;;
59189;SDS011;50749;51.636;4.948;2023-07-31T04:59:38;6.50;;;2.80;;
59189;SDS011;50749;51.636;4.948;2023-07-31T05:02:04;6.45;;;2.53;;
59189;SDS011;50749;51.636;4.948;2023-07-31T05:04:30;6.43;;;2.67;;
59189;SDS011;50749;51.636;4.948;2023-07-31T05:06:55;6.60;;;2.40;;
59189;SDS011;50749;51.636;4.948;2023-07-31T05:09:21;7.85;;;2.90;;
59189;SDS011;50749;51.636;4.948;2023-07-31T05:11:47;8.55;;;2.97;;
59189;SDS011;50749;51.636;4.948;2023-07-31T05:14:13;7.25;;;2.45;;
59189;SDS011;50749;51.636;4.948;2023-07-31T05:16:39;6.78;;;2.58;;
59189;SDS011;50749;51.636;4.948;2023-07-31T05:19:05;7.50;;;2.60;;
59189;SDS011;50749;51.636;4.948;2023-07-31T05:21:30;8.30;;;2.78;;
59189;SDS011;50749;51.636;4.948;2023-07-31T05:23:56;6.80;;;2.97;;
59189;SDS011;50749;51.636;4.948;2023-07-31T05:26:22;5.15;;;2.63;;
59189;SDS011;50749;51.636;4.948;2023-07-31T05:28:47;6.10;;;2.85;;
59189;SDS011;50749;51.636;4.948;2023-07-31T05:31:13;7.07;;;2.75;;
59189;SDS011;50749;51.636;4.948;2023-07-31T05:33:39;5.63;;;2.17;;
59189;SDS011;50749;51.636;4.948;2023-07-31T05:36:05;7.60;;;2.88;;
59189;SDS011;50749;51.636;4.948;2023-07-31T05:38:31;5.72;;;2.30;;
59189;SDS011;50749;51.636;4.948;2023-07-31T05:40:56;6.15;;;2.47;;
59189;SDS011;50749;51.636;4.948;2023-07-31T05:43:22;6.35;;;2.35;;
59189;SDS011;50749;51.636;4.948;2023-07-31T05:45:47;5.13;;;2.17;;
59189;SDS011;50749;51.636;4.948;2023-07-31T05:48:13;5.97;;;2.40;;
59189;SDS011;50749;51.636;4.948;2023-07-31T05:50:39;4.53;;;2.13;;
59189;SDS011;50749;51.636;4.948;2023-07-31T05:53:05;6.15;;;2.53;;
59189;SDS011;50749;51.636;4.948;2023-07-31T05:55:33;4.63;;;1.92;;
59189;SDS011;50749;51.636;4.948;2023-07-31T05:57:59;7.57;;;2.83;;
59189;SDS011;50749;51.636;4.948;2023-07-31T06:00:24;6.07;;;3.08;;
59189;SDS011;50749;51.636;4.948;2023-07-31T06:02:50;3.40;;;1.98;;
59189;SDS011;50749;51.636;4.948;2023-07-31T06:05:19;5.32;;;2.30;;
59189;SDS011;50749;51.636;4.948;2023-07-31T06:07:45;5.95;;;1.98;;
59189;SDS011;50749;51.636;4.948;2023-07-31T06:10:10;2.95;;;1.90;;
59189;SDS011;50749;51.636;4.948;2023-07-31T06:12:36;4.22;;;1.90;;
59189;SDS011;50749;51.636;4.948;2023-07-31T06:15:02;4.00;;;1.95;;
59189;SDS011;50749;51.636;4.948;2023-07-31T06:17:29;2.10;;;1.33;;
59189;SDS011;50749;51.636;4.948;2023-07-31T06:19:56;4.55;;;1.75;;
59189;SDS011;50749;51.636;4.948;2023-07-31T06:22:22;3.63;;;1.65;;
59189;SDS011;50749;51.636;4.948;2023-07-31T06:24:48;6.97;;;2.30;;
59189;SDS011;50749;51.636;4.948;2023-07-31T06:27:14;3.28;;;1.58;;
59189;SDS011;50749;51.636;4.948;2023-07-31T06:29:39;4.10;;;1.95;;
59189;SDS011;50749;51.636;4.948;2023-07-31T06:32:05;3.30;;;1.45;;
59189;SDS011;50749;51.636;4.948;2023-07-31T06:34:31;3.25;;;1.90;;
59189;SDS011;50749;51.636;4.948;2023-07-31T06:36:57;2.75;;;1.40;;
59189;SDS011;50749;51.636;4.948;2023-07-31T06:39:23;4.15;;;1.77;;
59189;SDS011;50749;51.636;4.948;2023-07-31T06:41:49;3.65;;;1.92;;
59189;SDS011;50749;51.636;4.948;2023-07-31T06:44:14;3.72;;;1.48;;
59189;SDS011;50749;51.636;4.948;2023-07-31T06:46:40;5.20;;;1.90;;
59189;SDS011;50749;51.636;4.948;2023-07-31T06:49:07;2.72;;;1.48;;
59189;SDS011;50749;51.636;4.948;2023-07-31T06:51:33;7.88;;;1.90;;
59189;SDS011;50749;51.636;4.948;2023-07-31T06:54:01;3.55;;;2.13;;
59189;SDS011;50749;51.636;4.948;2023-07-31T06:56:26;6.53;;;1.55;;
59189;SDS011;50749;51.636;4.948;2023-07-31T06:58:52;4.38;;;1.70;;
59189;SDS011;50749;51.636;4.948;2023-07-31T07:01:18;4.65;;;1.70;;
59189;SDS011;50749;51.636;4.948;2023-07-31T07:03:44;5.38;;;1.35;;
59189;SDS011;50749;51.636;4.948;2023-07-31T07:06:10;2.75;;;1.27;;
59189;SDS011;50749;51.636;4.948;2023-07-31T07:08:35;2.65;;;1.27;;
59189;SDS011;50749;51.636;4.948;2023-07-31T07:11:01;2.90;;;1.10;;
59189;SDS011;50749;51.636;4.948;2023-07-31T07:13:27;3.22;;;1.17;;
59189;SDS011;50749;51.636;4.948;2023-07-31T07:15:52;4.53;;;1.30;;
59189;SDS011;50749;51.636;4.948;2023-07-31T07:18:18;2.40;;;1.30;;
59189;SDS011;50749;51.636;4.948;2023-07-31T07:20:49;3.00;;;1.00;;
59189;SDS011;50749;51.636;4.948;2023-07-31T07:23:16;1.48;;;1.05;;
59189;SDS011;50749;51.636;4.948;2023-07-31T07:25:45;3.47;;;1.00;;
59189;SDS011;50749;51.636;4.948;2023-07-31T07:28:11;2.15;;;0.93;;
59189;SDS011;50749;51.636;4.948;2023-07-31T07:30:37;2.40;;;1.17;;
59189;SDS011;50749;51.636;4.948;2023-07-31T07:33:02;2.15;;;1.10;;
59189;SDS011;50749;51.636;4.948;2023-07-31T07:35:28;3.92;;;1.25;;
59189;SDS011;50749;51.636;4.948;2023-07-31T07:37:54;2.70;;;1.20;;
59189;SDS011;50749;51.636;4.948;2023-07-31T07:40:20;3.20;;;1.23;;
59189;SDS011;50749;51.636;4.948;2023-07-31T07:42:46;1.83;;;1.10;;
59189;SDS011;50749;51.636;4.948;2023-07-31T07:45:12;2.55;;;1.05;;
59189;SDS011;50749;51.636;4.948;2023-07-31T07:47:40;3.65;;;1.20;;
59189;SDS011;50749;51.636;4.948;2023-07-31T07:50:06;2.03;;;1.20;;
59189;SDS011;50749;51.636;4.948;2023-07-31T07:52:32;2.60;;;1.17;;
59189;SDS011;50749;51.636;4.948;2023-07-31T07:54:58;5.72;;;1.33;;
59189;SDS011;50749;51.636;4.948;2023-07-31T07:57:24;3.35;;;1.58;;
59189;SDS011;50749;51.636;4.948;2023-07-31T07:59:49;3.00;;;1.40;;
59189;SDS011;50749;51.636;4.948;2023-07-31T08:02:18;1.88;;;1.20;;
59189;SDS011;50749;51.636;4.948;2023-07-31T08:04:43;5.00;;;1.80;;
59189;SDS011;50749;51.636;4.948;2023-07-31T08:07:13;1.95;;;1.02;;
59189;SDS011;50749;51.636;4.948;2023-07-31T08:09:39;3.65;;;1.40;;
59189;SDS011;50749;51.636;4.948;2023-07-31T08:12:05;3.20;;;1.10;;
59189;SDS011;50749;51.636;4.948;2023-07-31T08:14:31;1.85;;;1.17;;
59189;SDS011;50749;51.636;4.948;2023-07-31T08:16:57;3.13;;;1.50;;
59189;SDS011;50749;51.636;4.948;2023-07-31T08:19:22;2.30;;;1.30;;
59189;SDS011;50749;51.636;4.948;2023-07-31T08:21:48;3.78;;;1.35;;
59189;SDS011;50749;51.636;4.948;2023-07-31T08:24:14;2.17;;;1.20;;
59189;SDS011;50749;51.636;4.948;2023-07-31T08:26:40;3.03;;;1.25;;
59189;SDS011;50749;51.636;4.948;2023-07-31T08:29:05;2.25;;;1.40;;
59189;SDS011;50749;51.636;4.948;2023-07-31T08:31:31;3.28;;;1.55;;
59189;SDS011;50749;51.636;4.948;2023-07-31T08:33:57;4.82;;;1.40;;
59189;SDS011;50749;51.636;4.948;2023-07-31T08:36:23;2.35;;;1.35;;
59189;SDS011;50749;51.636;4.948;2023-07-31T08:38:48;2.22;;;1.30;;
59189;SDS011;50749;51.636;4.948;2023-07-31T08:41:15;3.13;;;1.65;;
59189;SDS011;50749;51.636;4.948;2023-07-31T08:43:47;3.00;;;1.38;;
59189;SDS011;50749;51.636;4.948;2023-07-31T08:46:15;3.78;;;1.30;;
59189;SDS011;50749;51.636;4.948;2023-07-31T08:48:44;2.33;;;1.40;;
59189;SDS011;50749;51.636;4.948;2023-07-31T08:51:10;4.32;;;1.48;;
59189;SDS011;50749;51.636;4.948;2023-07-31T08:53:36;2.97;;;1.50;;
59189;SDS011;50749;51.636;4.948;2023-07-31T08:56:02;5.38;;;1.52;;
59189;SDS011;50749;51.636;4.948;2023-07-31T08:58:31;2.58;;;1.60;;
59189;SDS011;50749;51.636;4.948;2023-07-31T09:00:58;3.35;;;1.40;;
59189;SDS011;50749;51.636;4.948;2023-07-31T09:03:28;3.00;;;1.50;;
59189;SDS011;50749;51.636;4.948;2023-07-31T09:05:58;4.13;;;1.40;;
59189;SDS011;50749;51.636;4.948;2023-07-31T09:08:24;2.78;;;1.30;;
59189;SDS011;50749;51.636;4.948;2023-07-31T09:10:58;3.40;;;1.38;;
59189;SDS011;50749;51.636;4.948;2023-07-31T09:13:24;3.90;;;2.22;;
59189;SDS011;50749;51.636;4.948;2023-07-31T09:15:50;2.95;;;1.60;;
59189;SDS011;50749;51.636;4.948;2023-07-31T09:18:16;2.67;;;1.33;;
59189;SDS011;50749;51.636;4.948;2023-07-31T09:20:44;3.75;;;1.52;;
59189;SDS011;50749;51.636;4.948;2023-07-31T09:23:11;2.83;;;1.30;;
59189;SDS011;50749;51.636;4.948;2023-07-31T09:25:39;3.30;;;1.45;;
59189;SDS011;50749;51.636;4.948;2023-07-31T09:28:06;3.58;;;1.50;;
59189;SDS011;50749;51.636;4.948;2023-07-31T09:30:46;3.05;;;1.40;;
59189;SDS011;50749;51.636;4.948;2023-07-31T09:33:13;2.72;;;1.40;;
59189;SDS011;50749;51.636;4.948;2023-07-31T09:35:39;2.85;;;1.60;;
59189;SDS011;50749;51.636;4.948;2023-07-31T09:38:10;2.30;;;1.30;;
59189;SDS011;50749;51.636;4.948;2023-07-31T09:40:41;2.13;;;1.45;;
59189;SDS011;50749;51.636;4.948;2023-07-31T09:43:09;2.13;;;1.25;;
59189;SDS011;50749;51.636;4.948;2023-07-31T09:45:37;4.57;;;1.45;;
59189;SDS011;50749;51.636;4.948;2023-07-31T09:48:16;2.60;;;1.40;;
59189;SDS011;50749;51.636;4.948;2023-07-31T09:50:44;4.82;;;1.58;;
59189;SDS011;50749;51.636;4.948;2023-07-31T09:53:11;3.28;;;1.58;;
59189;SDS011;50749;51.636;4.948;2023-07-31T09:55:37;2.65;;;1.42;;
59189;SDS011;50749;51.636;4.948;2023-07-31T09:58:04;4.22;;;1.60;;
59189;SDS011;50749;51.636;4.948;2023-07-31T10:00:32;2.45;;;1.15;;
59189;SDS011;50749;51.636;4.948;2023-07-31T10:02:59;3.50;;;1.40;;
59189;SDS011;50749;51.636;4.948;2023-07-31T10:05:39;2.92;;;1.45;;
59189;SDS011;50749;51.636;4.948;2023-07-31T10:08:08;2.15;;;1.27;;
59189;SDS011;50749;51.636;4.948;2023-07-31T10:10:35;2.05;;;1.20;;
59189;SDS011;50749;51.636;4.948;2023-07-31T10:13:02;2.03;;;1.23;;
59189;SDS011;50749;51.636;4.948;2023-07-31T10:15:30;4.50;;;1.83;;
59189;SDS011;50749;51.636;4.948;2023-07-31T10:17:56;3.05;;;1.30;;
59189;SDS011;50749;51.636;4.948;2023-07-31T10:20:23;2.38;;;1.20;;
59189;SDS011;50749;51.636;4.948;2023-07-31T10:22:50;2.80;;;1.42;;
59189;SDS011;50749;51.636;4.948;2023-07-31T10:25:17;3.35;;;1.27;;
59189;SDS011;50749;51.636;4.948;2023-07-31T10:27:44;2.20;;;1.50;;
59189;SDS011;50749;51.636;4.948;2023-07-31T10:30:14;2.55;;;1.60;;
59189;SDS011;50749;51.636;4.948;2023-07-31T10:32:41;1.95;;;1.35;;
59189;SDS011;50749;51.636;4.948;2023-07-31T10:35:09;2.28;;;1.15;;
59189;SDS011;50749;51.636;4.948;2023-07-31T10:37:42;3.88;;;1.60;;
59189;SDS011;50749;51.636;4.948;2023-07-31T10:40:10;3.33;;;1.40;;
59189;SDS011;50749;51.636;4.948;2023-07-31T10:42:49;2.03;;;1.25;;
59189;SDS011;50749;51.636;4.948;2023-07-31T10:45:31;2.75;;;1.80;;
59189;SDS011;50749;51.636;4.948;2023-07-31T10:48:05;3.42;;;1.52;;
59189;SDS011;50749;51.636;4.948;2023-07-31T10:50:32;3.47;;;1.23;;
59189;SDS011;50749;51.636;4.948;2023-07-31T10:53:03;3.35;;;1.30;;
59189;SDS011;50749;51.636;4.948;2023-07-31T10:55:38;1.83;;;1.30;;
59189;SDS011;50749;51.636;4.948;2023-07-31T11:00:39;2.72;;;1.38;;
59189;SDS011;50749;51.636;4.948;2023-07-31T11:03:09;2.63;;;1.40;;
59189;SDS011;50749;51.636;4.948;2023-07-31T11:05:50;3.22;;;1.27;;
59189;SDS011;50749;51.636;4.948;2023-07-31T11:08:30;5.22;;;1.70;;
59189;SDS011;50749;51.636;4.948;2023-07-31T11:13:33;2.72;;;1.35;;
59189;SDS011;50749;51.636;4.948;2023-07-31T11:15:59;3.33;;;1.50;;
59189;SDS011;50749;51.636;4.948;2023-07-31T11:18:26;3.92;;;1.20;;
59189;SDS011;50749;51.636;4.948;2023-07-31T11:20:52;4.13;;;1.50;;
59189;SDS011;50749;51.636;4.948;2023-07-31T11:23:19;3.83;;;1.73;;
59189;SDS011;50749;51.636;4.948;2023-07-31T11:25:45;4.47;;;1.58;;
59189;SDS011;50749;51.636;4.948;2023-07-31T11:28:12;2.20;;;1.25;;
59189;SDS011;50749;51.636;4.948;2023-07-31T11:30:39;2.90;;;1.50;;
59189;SDS011;50749;51.636;4.948;2023-07-31T11:33:07;3.33;;;1.33;;
59189;SDS011;50749;51.636;4.948;2023-07-31T11:35:44;1.88;;;1.20;;
59189;SDS011;50749;51.636;4.948;2023-07-31T11:40:53;3.38;;;1.30;;
59189;SDS011;50749;51.636;4.948;2023-07-31T11:43:20;2.80;;;1.50;;
59189;SDS011;50749;51.636;4.948;2023-07-31T11:45:51;2.50;;;1.33;;
59189;SDS011;50749;51.636;4.948;2023-07-31T11:50:52;2.65;;;1.40;;
59189;SDS011;50749;51.636;4.948;2023-07-31T11:53:21;3.45;;;1.65;;
59189;SDS011;50749;51.636;4.948;2023-07-31T11:55:54;2.00;;;1.30;;
59189;SDS011;50749;51.636;4.948;2023-07-31T11:58:22;3.58;;;1.50;;
59189;SDS011;50749;51.636;4.948;2023-07-31T12:00:48;2.85;;;1.50;;
59189;SDS011;50749;51.636;4.948;2023-07-31T12:03:14;2.60;;;1.20;;
59189;SDS011;50749;51.636;4.948;2023-07-31T12:05:41;2.10;;;1.27;;
59189;SDS011;50749;51.636;4.948;2023-07-31T12:08:10;2.88;;;1.40;;
59189;SDS011;50749;51.636;4.948;2023-07-31T12:10:39;4.80;;;1.60;;
59189;SDS011;50749;51.636;4.948;2023-07-31T12:13:12;2.85;;;1.40;;
59189;SDS011;50749;51.636;4.948;2023-07-31T12:15:48;2.92;;;1.42;;
59189;SDS011;50749;51.636;4.948;2023-07-31T12:18:19;4.68;;;1.75;;
59189;SDS011;50749;51.636;4.948;2023-07-31T12:20:46;4.55;;;1.77;;
59189;SDS011;50749;51.636;4.948;2023-07-31T12:23:14;3.83;;;1.90;;
59189;SDS011;50749;51.636;4.948;2023-07-31T12:25:59;3.38;;;1.95;;
59189;SDS011;50749;51.636;4.948;2023-07-31T12:28:26;4.10;;;1.90;;
59189;SDS011;50749;51.636;4.948;2023-07-31T12:30:52;3.47;;;2.05;;
59189;SDS011;50749;51.636;4.948;2023-07-31T12:33:23;3.83;;;2.00;;
59189;SDS011;50749;51.636;4.948;2023-07-31T12:35:49;4.63;;;1.80;;
59189;SDS011;50749;51.636;4.948;2023-07-31T12:38:15;5.88;;;2.10;;
59189;SDS011;50749;51.636;4.948;2023-07-31T12:40:41;3.17;;;2.20;;
59189;SDS011;50749;51.636;4.948;2023-07-31T12:43:07;6.32;;;2.33;;
59189;SDS011;50749;51.636;4.948;2023-07-31T12:45:34;2.63;;;1.95;;
59189;SDS011;50749;51.636;4.948;2023-07-31T12:48:00;4.35;;;2.60;;
59189;SDS011;50749;51.636;4.948;2023-07-31T12:50:26;4.70;;;2.28;;
59189;SDS011;50749;51.636;4.948;2023-07-31T12:52:56;3.80;;;1.85;;
59189;SDS011;50749;51.636;4.948;2023-07-31T12:55:22;7.80;;;2.50;;
59189;SDS011;50749;51.636;4.948;2023-07-31T12:57:49;9.60;;;2.30;;
59189;SDS011;50749;51.636;4.948;2023-07-31T13:00:15;3.42;;;2.30;;
59189;SDS011;50749;51.636;4.948;2023-07-31T13:02:41;3.08;;;2.10;;
59189;SDS011;50749;51.636;4.948;2023-07-31T13:05:08;8.65;;;2.45;;
59189;SDS011;50749;51.636;4.948;2023-07-31T13:07:34;4.57;;;2.40;;
59189;SDS011;50749;51.636;4.948;2023-07-31T13:10:00;4.70;;;2.42;;
59189;SDS011;50749;51.636;4.948;2023-07-31T13:12:25;3.58;;;2.28;;
59189;SDS011;50749;51.636;4.948;2023-07-31T13:14:51;5.82;;;2.53;;
59189;SDS011;50749;51.636;4.948;2023-07-31T13:17:17;5.13;;;2.58;;
59189;SDS011;50749;51.636;4.948;2023-07-31T13:19:43;5.30;;;2.60;;
59189;SDS011;50749;51.636;4.948;2023-07-31T13:22:08;4.82;;;2.40;;
59189;SDS011;50749;51.636;4.948;2023-07-31T13:24:34;4.65;;;2.28;;
59189;SDS011;50749;51.636;4.948;2023-07-31T13:27:00;5.72;;;2.78;;
59189;SDS011;50749;51.636;4.948;2023-07-31T13:29:25;7.00;;;2.50;;
59189;SDS011;50749;51.636;4.948;2023-07-31T13:31:52;4.15;;;2.30;;
59189;SDS011;50749;51.636;4.948;2023-07-31T13:34:18;7.20;;;2.67;;
59189;SDS011;50749;51.636;4.948;2023-07-31T13:36:44;4.53;;;2.13;;
59189;SDS011;50749;51.636;4.948;2023-07-31T13:39:09;6.00;;;2.17;;
59189;SDS011;50749;51.636;4.948;2023-07-31T13:41:35;5.03;;;2.05;;
59189;SDS011;50749;51.636;4.948;2023-07-31T13:44:01;3.50;;;2.22;;
59189;SDS011;50749;51.636;4.948;2023-07-31T13:46:26;4.38;;;2.20;;
59189;SDS011;50749;51.636;4.948;2023-07-31T13:48:52;4.90;;;2.20;;
59189;SDS011;50749;51.636;4.948;2023-07-31T13:51:21;4.18;;;2.30;;
59189;SDS011;50749;51.636;4.948;2023-07-31T13:53:47;3.63;;;2.05;;
59189;SDS011;50749;51.636;4.948;2023-07-31T13:56:13;4.07;;;2.00;;
59189;SDS011;50749;51.636;4.948;2023-07-31T13:58:39;3.20;;;1.80;;
59189;SDS011;50749;51.636;4.948;2023-07-31T14:01:05;3.75;;;2.20;;
59189;SDS011;50749;51.636;4.948;2023-07-31T14:03:31;5.22;;;2.10;;
59189;SDS011;50749;51.636;4.948;2023-07-31T14:05:56;6.20;;;1.85;;
59189;SDS011;50749;51.636;4.948;2023-07-31T14:08:22;4.40;;;2.50;;
59189;SDS011;50749;51.636;4.948;2023-07-31T14:10:48;4.13;;;2.33;;
59189;SDS011;50749;51.636;4.948;2023-07-31T14:13:14;8.68;;;2.08;;
59189;SDS011;50749;51.636;4.948;2023-07-31T14:15:41;3.60;;;2.30;;
59189;SDS011;50749;51.636;4.948;2023-07-31T14:18:08;5.13;;;2.28;;
59189;SDS011;50749;51.636;4.948;2023-07-31T14:20:34;5.75;;;2.00;;
59189;SDS011;50749;51.636;4.948;2023-07-31T14:23:01;2.88;;;1.88;;
59189;SDS011;50749;51.636;4.948;2023-07-31T14:25:28;5.82;;;2.15;;
59189;SDS011;50749;51.636;4.948;2023-07-31T14:27:54;7.57;;;2.50;;
59189;SDS011;50749;51.636;4.948;2023-07-31T14:30:19;5.50;;;2.45;;
59189;SDS011;50749;51.636;4.948;2023-07-31T14:32:45;3.00;;;1.80;;
59189;SDS011;50749;51.636;4.948;2023-07-31T14:35:11;12.88;;;3.42;;
59189;SDS011;50749;51.636;4.948;2023-07-31T14:37:38;6.57;;;2.38;;
59189;SDS011;50749;51.636;4.948;2023-07-31T14:40:05;4.18;;;1.92;;
59189;SDS011;50749;51.636;4.948;2023-07-31T14:42:32;4.15;;;2.03;;
59189;SDS011;50749;51.636;4.948;2023-07-31T14:44:58;4.47;;;1.98;;
59189;SDS011;50749;51.636;4.948;2023-07-31T14:47:24;3.15;;;1.75;;
59189;SDS011;50749;51.636;4.948;2023-07-31T14:49:50;4.95;;;2.10;;
59189;SDS011;50749;51.636;4.948;2023-07-31T14:52:16;4.90;;;2.28;;
59189;SDS011;50749;51.636;4.948;2023-07-31T14:54:41;6.25;;;1.98;;
59189;SDS011;50749;51.636;4.948;2023-07-31T14:57:07;4.47;;;1.85;;
59189;SDS011;50749;51.636;4.948;2023-07-31T14:59:33;2.97;;;2.03;;
59189;SDS011;50749;51.636;4.948;2023-07-31T15:01:59;2.38;;;1.60;;